createdAt,value
2022-09-12T00:02:36.607Z,10.06
2022-09-12T00:07:36.587Z,9.93
2022-09-12T00:12:36.588Z,9.87
2022-09-12T00:17:36.582Z,9.68
2022-09-12T00:22:36.561Z,9.62
2022-09-12T00:27:36.569Z,9.43
2022-09-12T00:32:36.550Z,9.43
2022-09-12T00:37:36.566Z,9.43
2022-09-12T00:42:36.543Z,9.62
2022-09-12T00:47:36.535Z,9.5
2022-09-12T00:52:36.562Z,9.18
2022-09-12T00:57:36.539Z,9.25
2022-09-12T01:02:36.539Z,9.25
2022-09-12T01:07:39.836Z,9.18
2022-09-12T01:12:36.536Z,9
2022-09-12T01:17:36.512Z,8.87
2022-09-12T01:22:36.521Z,9.12
2022-09-12T01:27:36.514Z,8.81
2022-09-12T01:32:36.525Z,9.31
2022-09-12T01:37:36.514Z,8.87
2022-09-12T01:42:36.495Z,8.75
2022-09-12T01:47:36.486Z,8.87
2022-09-12T01:52:36.490Z,8.56
2022-09-12T01:57:36.485Z,8.93
2022-09-12T02:02:36.490Z,8.5
2022-09-12T02:07:36.475Z,8.62
2022-09-12T02:12:36.472Z,8.68
2022-09-12T02:17:36.461Z,8.31
2022-09-12T02:22:36.457Z,8.43
2022-09-12T02:27:36.460Z,8.43
2022-09-12T02:32:36.452Z,8.43
2022-09-12T02:37:36.440Z,8.56
2022-09-12T02:42:36.444Z,8.62
2022-09-12T02:47:36.433Z,8.68
2022-09-12T02:52:36.439Z,8.5
2022-09-12T02:57:36.431Z,8.37
2022-09-12T03:02:36.434Z,8.25
2022-09-12T03:07:36.407Z,8.37
2022-09-12T03:12:36.404Z,8.5
2022-09-12T03:17:36.419Z,8.25
2022-09-12T03:22:36.400Z,8.12
2022-09-12T03:27:36.389Z,8.12
2022-09-12T03:37:36.382Z,8.12
2022-09-12T03:42:36.388Z,8.31
2022-09-12T03:52:36.392Z,8.06
2022-09-12T04:02:36.370Z,8.56
2022-09-12T04:07:36.378Z,8.75
2022-09-12T04:12:36.361Z,9
2022-09-12T04:22:36.353Z,9
2022-09-12T04:27:36.349Z,8.93
2022-09-12T04:32:36.356Z,9.06
2022-09-12T04:37:36.349Z,9.18
2022-09-12T04:42:36.334Z,9.25
2022-09-12T04:47:36.330Z,9.31
2022-09-12T04:52:36.323Z,9.25
2022-09-12T04:57:36.319Z,9.62
2022-09-12T05:02:36.372Z,9.68
2022-09-12T05:07:36.318Z,11.31
2022-09-12T05:12:36.304Z,12.18
2022-09-12T05:17:36.304Z,12.87
2022-09-12T05:22:36.307Z,13.68
2022-09-12T05:27:36.282Z,13.81
2022-09-12T05:32:36.284Z,14.81
2022-09-12T05:37:36.298Z,14.87
2022-09-12T05:42:36.290Z,14.68
2022-09-12T05:47:36.263Z,14.93
2022-09-12T05:52:36.279Z,15.12
2022-09-12T05:57:36.262Z,15.56
2022-09-12T06:02:36.302Z,15.37
2022-09-12T06:07:36.265Z,16.06
2022-09-12T06:12:36.243Z,16.56
2022-09-12T06:17:36.244Z,15.93
2022-09-12T06:22:36.236Z,17.43
2022-09-12T06:27:36.235Z,16.5
2022-09-12T06:32:36.225Z,17.62
2022-09-12T06:37:36.212Z,16.37
2022-09-12T06:42:36.205Z,16.93
2022-09-12T06:47:36.202Z,17.31
2022-09-12T06:52:36.193Z,17.43
2022-09-12T06:57:36.219Z,18.18
2022-09-12T07:02:36.252Z,18.43
2022-09-12T07:12:36.185Z,18.5
2022-09-12T07:17:36.181Z,14.68
2022-09-12T07:27:36.155Z,15.25
2022-09-12T07:32:36.150Z,14.75
2022-09-12T08:02:36.154Z,15.68
2022-09-12T08:07:36.145Z,15.87
2022-09-12T08:22:36.097Z,15.93
2022-09-12T08:27:36.091Z,15.87
2022-09-12T08:32:36.089Z,16.06
2022-09-12T08:37:36.069Z,15.81
2022-09-12T08:42:36.052Z,15.87
2022-09-12T08:47:36.058Z,16.5
2022-09-12T08:52:36.052Z,16.56
2022-09-12T08:57:36.055Z,16.37
2022-09-12T09:02:36.057Z,16.75
2022-09-12T09:07:36.032Z,17.06
2022-09-12T09:12:36.034Z,17
2022-09-12T09:17:36.023Z,17.12
2022-09-12T09:22:36.291Z,16.87
2022-09-12T09:27:40.701Z,16.62
2022-09-12T09:32:36.010Z,17.25
2022-09-12T09:37:35.988Z,17.18
2022-09-12T09:42:36.009Z,17.06
2022-09-12T09:47:35.989Z,17.25
2022-09-12T09:52:35.995Z,17.5
2022-09-12T09:57:35.975Z,17.43
2022-09-12T10:02:36.026Z,18.5
2022-09-12T10:07:35.956Z,18.25
2022-09-12T10:12:35.956Z,18.18
2022-09-12T10:17:35.959Z,18.06
2022-09-12T10:22:35.945Z,18.31
2022-09-12T10:27:35.931Z,18.5
2022-09-12T10:32:35.962Z,19
2022-09-12T10:37:35.930Z,18.5
2022-09-12T10:42:35.920Z,18.87
2022-09-12T10:47:35.905Z,18.93
2022-09-12T10:52:35.891Z,18.31
2022-09-12T10:57:35.894Z,19
2022-09-12T11:02:35.927Z,18.62
2022-09-12T11:07:35.885Z,19.25
2022-09-12T11:12:35.884Z,19.25
2022-09-12T11:17:35.904Z,19.31
2022-09-12T11:22:35.891Z,19.18
2022-09-12T11:27:35.866Z,19.06
2022-09-12T11:32:35.863Z,19.5
2022-09-12T11:37:35.843Z,19.56
2022-09-12T11:52:35.836Z,19.62
2022-09-12T11:57:35.822Z,19.31
2022-09-12T12:02:35.867Z,19.5
2022-09-12T12:07:35.814Z,19.31
2022-09-12T12:12:35.792Z,19.62
2022-09-12T12:17:35.778Z,19.68
2022-09-12T12:27:35.784Z,20.25
2022-09-12T12:32:35.780Z,20.62
2022-09-12T12:37:35.763Z,20.18
2022-09-12T12:42:35.769Z,20.31
2022-09-12T12:47:35.777Z,20.75
2022-09-12T12:52:35.754Z,20.37
2022-09-12T12:57:35.748Z,20.62
2022-09-12T13:02:35.889Z,20.68
2022-09-12T13:07:35.742Z,20.62
2022-09-12T13:12:35.730Z,21
2022-09-12T13:17:35.723Z,20.81
2022-09-12T13:22:35.718Z,20.93
2022-09-12T13:32:35.706Z,21
2022-09-12T13:37:35.697Z,20.68
2022-09-12T13:42:35.677Z,21
2022-09-12T13:52:35.685Z,21.12
2022-09-12T13:57:35.657Z,21.43
2022-09-12T14:02:35.694Z,21.43
2022-09-12T14:12:35.638Z,20.93
2022-09-12T14:17:35.631Z,20.81
2022-09-12T14:22:35.626Z,21.18
2022-09-12T14:32:35.612Z,21
2022-09-12T14:37:35.601Z,20.81
2022-09-12T14:42:35.610Z,20.68
2022-09-12T14:47:35.596Z,20.81
2022-09-12T14:52:35.581Z,20.68
2022-09-12T14:57:35.578Z,20.87
2022-09-12T15:02:35.579Z,21.18
2022-09-12T15:07:35.597Z,20.93
2022-09-12T15:12:35.575Z,20.81
2022-09-12T15:17:35.548Z,20.75
2022-09-12T15:22:35.588Z,20.81
2022-09-12T15:27:35.544Z,20.87
2022-09-12T15:32:35.533Z,20.87
2022-09-12T15:37:35.535Z,20.93
2022-09-12T15:42:35.519Z,20.31
2022-09-12T15:47:35.539Z,20.31
2022-09-12T15:52:35.514Z,20.5
2022-09-12T15:57:35.493Z,20.43
2022-09-12T16:02:35.534Z,20.31
2022-09-12T16:07:35.521Z,20.18
2022-09-12T16:12:35.480Z,20.18
2022-09-12T16:17:35.497Z,20
2022-09-12T16:22:35.473Z,19.93
2022-09-12T16:27:35.456Z,19.87
2022-09-12T16:32:35.464Z,20
2022-09-12T16:37:35.467Z,19.75
2022-09-12T16:42:35.429Z,19.75
2022-09-12T16:47:35.428Z,19.43
2022-09-12T16:52:35.438Z,19.31
2022-09-12T16:57:35.434Z,19.12
2022-09-12T17:02:35.458Z,18.93
2022-09-12T17:07:35.415Z,18.81
2022-09-12T17:12:35.415Z,18.56
2022-09-12T17:17:35.392Z,18.37
2022-09-12T17:22:35.406Z,18.25
2022-09-12T17:27:35.380Z,17.93
2022-09-12T17:32:35.376Z,17.18
2022-09-12T17:37:35.389Z,16.81
2022-09-12T17:42:35.358Z,16.56
2022-09-12T17:47:35.345Z,16.87
2022-09-12T17:57:35.334Z,16.93
